createdAt,value
2022-12-13T00:01:45.248Z,100.00
2022-12-13T00:04:13.879Z,100.00
2022-12-13T00:06:41.813Z,100.00
2022-12-13T00:09:10.640Z,100.00
2022-12-13T00:11:38.009Z,100.00
2022-12-13T00:14:05.396Z,100.00
2022-12-13T00:16:32.862Z,100.00
2022-12-13T00:19:01.104Z,100.00
2022-12-13T00:21:33.065Z,100.00
2022-12-13T00:24:01.389Z,100.00
2022-12-13T00:26:31.524Z,100.00
2022-12-13T00:29:01.365Z,100.00
2022-12-13T00:34:19.737Z,100.00
2022-12-13T00:36:47.316Z,100.00
2022-12-13T00:39:16.670Z,100.00
2022-12-13T00:41:45.115Z,99.04
2022-12-13T00:44:13.797Z,99.12
2022-12-13T00:46:42.331Z,99.92
2022-12-13T00:49:10.970Z,99.20
2022-12-13T00:51:38.863Z,98.76
2022-12-13T00:54:06.638Z,97.74
2022-12-13T00:56:34.092Z,97.62
2022-12-13T00:59:01.652Z,97.90
2022-12-13T01:01:32.672Z,98.32
2022-12-13T01:04:02.381Z,98.61
2022-12-13T01:06:31.656Z,99.78
2022-12-13T01:08:59.115Z,100.00
2022-12-13T01:11:26.580Z,100.00
2022-12-13T01:13:54.027Z,100.00
2022-12-13T01:16:21.643Z,99.78
2022-12-13T01:18:49.039Z,99.82
2022-12-13T01:21:19.004Z,99.34
2022-12-13T01:23:46.908Z,99.20
2022-12-13T01:26:17.037Z,98.34
2022-12-13T01:28:44.996Z,99.05
2022-12-13T01:31:15.758Z,98.74
2022-12-13T01:33:43.251Z,98.00
2022-12-13T01:36:17.474Z,96.95
2022-12-13T01:38:45.032Z,96.48
2022-12-13T01:41:21.016Z,95.98
2022-12-13T01:44:03.571Z,96.68
2022-12-13T01:46:36.018Z,97.65
2022-12-13T01:49:20.486Z,99.00
2022-12-13T01:52:03.120Z,98.43
2022-12-13T01:54:34.012Z,95.83
2022-12-13T01:57:06.613Z,92.62
2022-12-13T01:59:37.676Z,91.84
2022-12-13T02:02:07.255Z,92.01
2022-12-13T02:05:02.065Z,90.51
2022-12-13T02:07:33.789Z,94.83
2022-12-13T02:10:05.172Z,94.06
2022-12-13T02:12:35.313Z,92.61
2022-12-13T02:15:08.062Z,91.69
2022-12-13T02:18:00.273Z,91.88
2022-12-13T02:20:55.220Z,94.02
2022-12-13T02:23:25.576Z,94.98
2022-12-13T02:26:30.690Z,95.09
2022-12-13T02:29:30.356Z,95.25
2022-12-13T02:32:09.827Z,96.52
2022-12-13T02:34:45.420Z,95.59
2022-12-13T02:37:33.151Z,96.79
2022-12-13T02:40:07.772Z,97.09
2022-12-13T02:42:41.117Z,97.03
2022-12-13T02:45:21.252Z,95.66
2022-12-13T02:47:53.939Z,96.04
2022-12-13T02:50:23.386Z,97.49
2022-12-13T02:52:52.305Z,97.79
2022-12-13T02:55:22.850Z,98.31
2022-12-13T02:57:53.030Z,97.89
2022-12-13T03:00:26.973Z,97.45
2022-12-13T03:03:25.406Z,98.06
2022-12-13T03:06:44.418Z,98.25
2022-12-13T03:09:25.429Z,97.41
2022-12-13T03:12:14.248Z,96.99
2022-12-13T03:14:54.651Z,94.95
2022-12-13T03:17:25.440Z,95.17
2022-12-13T03:19:54.623Z,94.37
2022-12-13T03:22:22.916Z,93.64
2022-12-13T03:24:52.792Z,94.21
2022-12-13T03:27:20.220Z,93.87
2022-12-13T03:29:47.673Z,94.85
2022-12-13T03:32:15.064Z,94.71
2022-12-13T03:34:44.246Z,94.65
2022-12-13T03:37:13.704Z,93.39
2022-12-13T03:39:41.116Z,93.42
2022-12-13T03:42:08.629Z,92.45
2022-12-13T03:44:35.976Z,92.08
2022-12-13T03:47:03.420Z,92.71
2022-12-13T03:49:35.376Z,92.75
2022-12-13T03:52:03.330Z,92.08
2022-12-13T03:54:30.693Z,91.56
2022-12-13T03:56:58.208Z,92.06
2022-12-13T03:59:25.700Z,89.96
2022-12-13T04:01:53.233Z,89.97
2022-12-13T04:04:20.812Z,89.32
2022-12-13T04:06:48.142Z,89.16
2022-12-13T04:09:15.769Z,90.43
2022-12-13T04:12:01.560Z,90.95
2022-12-13T04:14:28.909Z,91.06
2022-12-13T04:16:56.329Z,90.12
2022-12-13T04:19:24.209Z,88.98
2022-12-13T04:21:54.412Z,90.19
2022-12-13T04:24:31.197Z,90.84
2022-12-13T04:27:01.421Z,91.82
2022-12-13T04:29:33.759Z,92.74
2022-12-13T04:32:04.433Z,93.75
2022-12-13T04:34:36.756Z,93.40
2022-12-13T04:37:05.696Z,92.33
2022-12-13T04:39:34.122Z,91.06
2022-12-13T04:42:03.559Z,90.23
2022-12-13T04:44:36.545Z,90.46
2022-12-13T04:47:05.389Z,91.72
2022-12-13T04:49:33.566Z,92.93
2022-12-13T04:52:02.441Z,94.39
2022-12-13T04:54:36.036Z,95.00
2022-12-13T04:57:10.787Z,94.63
2022-12-13T04:59:38.812Z,94.72
2022-12-13T05:02:07.586Z,94.15
2022-12-13T05:04:35.524Z,94.96
2022-12-13T05:07:03.164Z,94.77
2022-12-13T05:09:31.461Z,94.41
2022-12-13T05:12:01.468Z,93.12
2022-12-13T05:14:32.936Z,92.82
2022-12-13T05:17:01.572Z,94.07
2022-12-13T05:19:30.906Z,94.45
2022-12-13T05:22:02.421Z,95.43
2022-12-13T05:24:31.779Z,96.01
2022-12-13T05:27:00.358Z,95.96
2022-12-13T05:29:28.121Z,96.45
2022-12-13T05:31:55.616Z,96.00
2022-12-13T05:34:23.057Z,95.87
2022-12-13T05:36:50.963Z,95.82
2022-12-13T05:39:28.383Z,95.43
2022-12-13T05:42:02.192Z,95.02
2022-12-13T05:44:31.552Z,95.43
2022-12-13T05:47:02.055Z,95.48
2022-12-13T05:49:31.411Z,95.62
2022-12-13T05:51:59.007Z,95.06
2022-12-13T05:54:26.432Z,94.55
2022-12-13T05:56:53.818Z,94.44
2022-12-13T05:59:22.428Z,93.71
2022-12-13T06:01:49.792Z,92.73
2022-12-13T06:04:22.900Z,92.21
2022-12-13T06:06:52.161Z,91.30
2022-12-13T06:09:20.391Z,89.82
2022-12-13T06:11:48.760Z,90.55
2022-12-13T06:14:22.261Z,90.38
2022-12-13T06:16:52.134Z,90.36
2022-12-13T06:19:23.363Z,90.34
2022-12-13T06:21:53.520Z,89.29
2022-12-13T06:24:22.876Z,89.56
2022-12-13T06:26:51.381Z,89.08
2022-12-13T06:29:23.643Z,88.90
2022-12-13T06:32:01.065Z,88.98
2022-12-13T06:34:30.490Z,88.33
2022-12-13T06:36:57.932Z,87.60
2022-12-13T06:39:25.559Z,87.44
2022-12-13T06:42:06.253Z,87.42
2022-12-13T06:44:35.334Z,87.25
2022-12-13T06:47:11.066Z,87.45
2022-12-13T06:49:42.857Z,88.47
2022-12-13T06:52:13.127Z,88.31
2022-12-13T06:54:41.754Z,87.63
2022-12-13T06:57:10.299Z,87.63
2022-12-13T06:59:37.860Z,87.33
2022-12-13T07:02:06.580Z,87.50
2022-12-13T07:04:51.596Z,87.89
2022-12-13T07:07:18.931Z,87.04
2022-12-13T07:09:46.485Z,86.49
2022-12-13T07:12:14.032Z,85.89
2022-12-13T07:14:41.526Z,86.23
2022-12-13T07:17:08.910Z,86.40
2022-12-13T07:19:36.467Z,85.19
2022-12-13T07:22:05.834Z,85.56
2022-12-13T07:24:36.240Z,85.53
2022-12-13T07:27:04.361Z,85.05
2022-12-13T07:29:31.910Z,84.95
2022-12-13T07:32:01.631Z,86.11
2022-12-13T07:34:30.465Z,85.61
2022-12-13T07:36:58.272Z,86.07
2022-12-13T07:39:26.274Z,85.70
2022-12-13T07:41:56.116Z,86.00
2022-12-13T07:44:24.896Z,85.92
2022-12-13T07:46:52.600Z,86.98
2022-12-13T07:49:20.374Z,87.04
2022-12-13T07:51:49.160Z,86.61
2022-12-13T07:54:16.636Z,87.64
2022-12-13T07:56:44.051Z,87.73
2022-12-13T07:59:13.152Z,86.71
2022-12-13T08:01:40.592Z,86.66
2022-12-13T08:04:10.092Z,87.28
2022-12-13T08:06:38.178Z,87.46
2022-12-13T08:09:06.270Z,88.07
2022-12-13T08:11:34.584Z,87.28
2022-12-13T08:14:02.119Z,87.07
2022-12-13T08:16:30.551Z,86.69
2022-12-13T08:19:03.162Z,88.17
2022-12-13T08:21:53.902Z,88.04
2022-12-13T08:24:23.912Z,88.29
2022-12-13T08:26:51.344Z,87.06
2022-12-13T08:29:22.341Z,86.04
2022-12-13T08:32:01.238Z,86.14
2022-12-13T08:34:29.531Z,86.63
2022-12-13T08:37:02.389Z,86.21
2022-12-13T08:39:37.525Z,85.47
2022-12-13T08:42:16.251Z,86.87
2022-12-13T08:44:52.883Z,87.67
2022-12-13T08:47:24.051Z,86.47
2022-12-13T08:49:54.451Z,88.43
2022-12-13T08:52:23.370Z,87.50
2022-12-13T08:54:51.179Z,87.78
2022-12-13T08:57:18.716Z,87.60
2022-12-13T08:59:46.419Z,86.64
2022-12-13T09:02:14.961Z,83.29
2022-12-13T09:04:43.066Z,80.53
2022-12-13T09:07:10.547Z,81.68
2022-12-13T09:09:38.055Z,80.99
2022-12-13T09:12:10.403Z,79.82
2022-12-13T09:14:45.541Z,80.29
2022-12-13T09:17:24.069Z,80.56
2022-12-13T09:19:58.322Z,81.58
2022-12-13T09:22:33.853Z,82.08
2022-12-13T09:25:03.306Z,81.36
2022-12-13T09:27:39.438Z,81.05
2022-12-13T09:30:10.814Z,81.31
2022-12-13T09:32:38.462Z,80.29
2022-12-13T09:35:06.669Z,77.73
2022-12-13T09:37:34.905Z,75.55
2022-12-13T09:40:16.103Z,77.18
2022-12-13T09:43:08.296Z,77.64
2022-12-13T09:45:44.271Z,76.38
2022-12-13T09:48:22.292Z,74.94
2022-12-13T09:51:16.553Z,75.21
2022-12-13T09:53:40.657Z,76.33
2022-12-13T09:56:12.096Z,77.23
2022-12-13T09:58:39.447Z,77.07
2022-12-13T10:01:06.893Z,78.30
2022-12-13T10:03:34.735Z,78.22
2022-12-13T10:06:22.802Z,79.50
2022-12-13T10:08:50.991Z,79.67
2022-12-13T10:11:31.708Z,79.59
2022-12-13T10:14:02.740Z,79.29
2022-12-13T10:16:37.040Z,80.38
2022-12-13T10:19:29.596Z,78.33
2022-12-13T10:22:02.240Z,77.06
2022-12-13T10:24:49.878Z,77.11
2022-12-13T10:27:21.405Z,76.68
2022-12-13T10:30:04.032Z,75.43
2022-12-13T10:32:37.339Z,77.18
2022-12-13T10:35:20.841Z,77.88
2022-12-13T10:37:48.325Z,77.39
2022-12-13T10:40:34.141Z,76.33
2022-12-13T10:43:20.571Z,76.34
2022-12-13T10:45:54.212Z,76.50
2022-12-13T10:48:42.075Z,76.54
2022-12-13T10:51:15.475Z,76.90
2022-12-13T10:53:54.400Z,76.32
2022-12-13T10:56:32.703Z,76.50
2022-12-13T10:59:25.043Z,75.10
2022-12-13T11:01:52.992Z,74.83
2022-12-13T11:04:32.207Z,74.76
2022-12-13T11:07:02.250Z,75.30
2022-12-13T11:09:38.538Z,74.24
2022-12-13T11:12:21.977Z,75.44
2022-12-13T11:14:59.673Z,75.28
2022-12-13T11:17:29.992Z,76.32
2022-12-13T11:20:02.975Z,76.47
2022-12-13T11:22:34.336Z,77.26
2022-12-13T11:25:06.288Z,76.40
2022-12-13T11:27:59.353Z,77.02
2022-12-13T11:30:43.751Z,76.82
2022-12-13T11:33:47.833Z,76.49
2022-12-13T11:36:18.796Z,76.02
2022-12-13T11:39:17.389Z,76.75
2022-12-13T11:41:51.213Z,78.38
2022-12-13T11:44:34.726Z,77.53
2022-12-13T11:47:02.380Z,76.84
2022-12-13T11:49:40.347Z,77.17
2022-12-13T11:52:25.746Z,76.88
2022-12-13T11:55:11.321Z,78.24
2022-12-13T11:57:47.175Z,78.06
2022-12-13T12:00:33.632Z,78.36
2022-12-13T12:03:16.673Z,78.98
2022-12-13T12:06:08.976Z,77.64
2022-12-13T12:08:48.171Z,77.50
2022-12-13T12:11:18.642Z,77.97
2022-12-13T12:13:52.731Z,78.67
2022-12-13T12:16:42.090Z,76.53
2022-12-13T12:19:22.397Z,77.86
2022-12-13T12:22:15.403Z,77.07
2022-12-13T12:24:57.478Z,76.28
2022-12-13T12:27:43.596Z,75.65
2022-12-13T12:30:22.871Z,77.58
2022-12-13T12:33:31.164Z,77.38
2022-12-13T12:36:10.980Z,77.21
2022-12-13T12:39:02.864Z,77.64
2022-12-13T12:41:33.152Z,77.61
2022-12-13T12:44:38.111Z,75.33
2022-12-13T12:47:56.464Z,75.46
2022-12-13T12:50:42.893Z,77.07
2022-12-13T12:53:41.718Z,76.95
2022-12-13T12:56:47.292Z,76.25
2022-12-13T12:59:34.781Z,75.60
2022-12-13T13:02:10.907Z,76.00
2022-12-13T13:04:45.270Z,75.96
2022-12-13T13:07:24.117Z,74.36
2022-12-13T13:09:54.600Z,73.47
2022-12-13T13:12:29.011Z,74.17
2022-12-13T13:14:58.106Z,75.24
2022-12-13T13:17:25.446Z,74.60
2022-12-13T13:20:23.419Z,75.05
2022-12-13T13:23:40.051Z,74.52
2022-12-13T13:26:24.323Z,74.98
2022-12-13T13:28:47.858Z,75.15
2022-12-13T13:31:16.086Z,76.28
2022-12-13T13:33:46.784Z,74.94
2022-12-13T13:36:39.454Z,74.45
2022-12-13T13:39:16.548Z,74.79
2022-12-13T13:41:55.794Z,75.27
2022-12-13T13:44:45.035Z,74.34
2022-12-13T13:47:22.374Z,74.68
2022-12-13T13:50:07.802Z,75.53
2022-12-13T13:52:44.510Z,75.25
2022-12-13T13:55:45.956Z,75.14
2022-12-13T13:58:31.926Z,76.08
2022-12-13T14:01:01.941Z,75.37
2022-12-13T14:03:42.376Z,74.75
2022-12-13T14:06:37.319Z,75.23
2022-12-13T14:09:07.748Z,75.29
2022-12-13T14:12:11.130Z,75.85
2022-12-13T14:15:16.179Z,75.19
2022-12-13T14:18:21.209Z,76.04
2022-12-13T14:21:11.048Z,75.31
2022-12-13T14:23:40.989Z,75.63
2022-12-13T14:26:51.543Z,76.43
2022-12-13T14:29:27.179Z,76.42
2022-12-13T14:31:55.730Z,74.78
2022-12-13T14:34:27.405Z,75.06
2022-12-13T14:37:15.053Z,75.52
2022-12-13T14:39:45.303Z,75.28
2022-12-13T14:42:24.377Z,74.77
2022-12-13T14:44:53.290Z,74.51
2022-12-13T14:47:22.061Z,74.63
2022-12-13T14:49:55.084Z,73.85
2022-12-13T14:52:27.033Z,74.31
2022-12-13T14:54:58.694Z,74.62
2022-12-13T14:57:32.060Z,74.20
2022-12-13T15:00:01.473Z,73.83
2022-12-13T15:02:33.825Z,74.48
2022-12-13T15:05:04.720Z,74.69
2022-12-13T15:07:40.083Z,75.24
2022-12-13T15:10:30.069Z,76.07
2022-12-13T15:12:57.488Z,75.61
2022-12-13T15:15:29.770Z,75.44
2022-12-13T15:18:20.306Z,75.56
2022-12-13T15:21:28.581Z,76.27
2022-12-13T15:24:00.133Z,76.65
2022-12-13T15:26:34.379Z,76.73
2022-12-13T15:29:10.428Z,77.45
2022-12-13T15:31:40.192Z,75.90
2022-12-13T15:34:30.561Z,75.63
2022-12-13T15:37:01.674Z,75.76
2022-12-13T15:39:31.248Z,76.66
2022-12-13T15:42:02.146Z,76.28
2022-12-13T15:44:37.519Z,76.55
2022-12-13T15:47:11.379Z,76.24
2022-12-13T15:49:50.417Z,76.54
2022-12-13T15:52:20.950Z,76.36
2022-12-13T15:55:09.321Z,76.21
2022-12-13T15:57:51.324Z,75.95
2022-12-13T16:00:31.025Z,75.00
2022-12-13T16:03:19.224Z,75.76
2022-12-13T16:05:52.915Z,75.98
2022-12-13T16:08:30.870Z,75.76
2022-12-13T16:10:59.220Z,76.29
2022-12-13T16:13:36.837Z,76.46
2022-12-13T16:16:27.573Z,77.15
2022-12-13T16:19:00.633Z,77.25
2022-12-13T16:21:29.028Z,76.72
2022-12-13T16:23:56.381Z,76.92
2022-12-13T16:26:26.878Z,77.19
2022-12-13T16:28:56.932Z,76.40
2022-12-13T16:31:27.661Z,76.99
2022-12-13T16:33:54.979Z,77.08
2022-12-13T16:36:22.320Z,77.24
2022-12-13T16:38:49.720Z,77.05
2022-12-13T16:41:17.248Z,77.14
2022-12-13T16:43:56.283Z,77.16
2022-12-13T16:47:14.343Z,78.04
2022-12-13T16:49:38.473Z,78.41
2022-12-13T16:52:07.695Z,78.94
2022-12-13T16:54:35.574Z,79.88
2022-12-13T16:57:02.953Z,79.05
2022-12-13T16:59:30.366Z,79.37
2022-12-13T17:01:57.908Z,79.42
2022-12-13T17:04:27.508Z,79.82
2022-12-13T17:06:55.613Z,79.21
2022-12-13T17:09:25.150Z,79.30
2022-12-13T17:11:52.709Z,79.02
2022-12-13T17:14:20.108Z,76.19
2022-12-13T17:16:47.994Z,75.91
2022-12-13T17:19:15.715Z,75.55
2022-12-13T17:21:43.294Z,75.03
2022-12-13T17:24:10.628Z,76.00
2022-12-13T17:26:37.943Z,75.39
2022-12-13T17:29:05.520Z,75.06
2022-12-13T17:31:36.173Z,74.86
2022-12-13T17:34:04.647Z,74.60
2022-12-13T17:36:32.289Z,74.37
2022-12-13T17:38:59.705Z,73.67
2022-12-13T17:41:27.089Z,73.75
2022-12-13T17:43:58.557Z,72.58
2022-12-13T17:46:26.057Z,73.02
2022-12-13T17:48:53.444Z,72.62
2022-12-13T17:51:20.828Z,72.53
2022-12-13T17:53:48.208Z,74.18
2022-12-13T17:56:16.338Z,72.63
2022-12-13T17:58:44.188Z,73.06
2022-12-13T18:01:12.601Z,72.86
2022-12-13T18:03:40.476Z,72.79
2022-12-13T18:06:07.940Z,72.06
2022-12-13T18:08:37.291Z,72.21
2022-12-13T18:13:55.274Z,71.29
2022-12-13T18:16:30.314Z,70.30
2022-12-13T18:19:01.695Z,69.66
2022-12-13T18:21:29.285Z,70.42
2022-12-13T18:23:56.754Z,70.99
2022-12-13T18:26:24.812Z,71.78
2022-12-13T18:28:52.543Z,72.72
2022-12-13T18:31:23.230Z,72.96
2022-12-13T18:33:52.850Z,73.59
2022-12-13T18:36:22.684Z,73.98
2022-12-13T18:38:50.562Z,75.24
2022-12-13T18:41:24.313Z,74.87
2022-12-13T18:44:00.263Z,74.20
2022-12-13T18:46:32.775Z,73.82
2022-12-13T18:49:00.768Z,74.15
2022-12-13T18:51:28.636Z,74.57
2022-12-13T18:53:56.282Z,75.67
2022-12-13T18:56:24.688Z,75.43
2022-12-13T18:58:52.644Z,73.92
2022-12-13T19:01:20.621Z,74.87
2022-12-13T19:03:48.937Z,75.28
2022-12-13T19:06:25.251Z,73.91
2022-12-13T19:08:56.317Z,73.79
2022-12-13T19:11:25.959Z,73.79
2022-12-13T19:13:53.778Z,74.76
2022-12-13T19:16:22.754Z,74.18
2022-12-13T19:18:50.442Z,74.76
2022-12-13T19:21:20.676Z,73.10
2022-12-13T19:23:55.821Z,73.30
2022-12-13T19:26:24.479Z,73.38
2022-12-13T19:28:51.901Z,73.28
2022-12-13T19:31:19.377Z,74.05
2022-12-13T19:33:47.715Z,74.86
2022-12-13T19:36:15.662Z,75.35
2022-12-13T19:38:43.033Z,75.05
2022-12-13T19:41:15.195Z,74.28
2022-12-13T19:43:50.689Z,75.38
2022-12-13T19:46:20.473Z,74.59
2022-12-13T19:48:48.430Z,74.18
2022-12-13T19:51:16.092Z,75.11
2022-12-13T19:53:43.591Z,75.52
2022-12-13T19:56:13.478Z,75.17
2022-12-13T19:58:40.944Z,75.84
2022-12-13T20:01:09.168Z,76.48
2022-12-13T20:03:41.923Z,77.94
2022-12-13T20:06:12.131Z,78.39
2022-12-13T20:08:39.709Z,78.66
2022-12-13T20:11:10.278Z,78.63
2022-12-13T20:13:37.872Z,78.69
2022-12-13T20:16:05.995Z,78.31
2022-12-13T20:18:34.018Z,78.01
2022-12-13T20:21:12.882Z,77.09
2022-12-13T20:23:49.439Z,76.58
2022-12-13T20:26:21.239Z,76.76
2022-12-13T20:28:50.147Z,77.04
2022-12-13T20:31:38.724Z,78.53
2022-12-13T20:34:10.135Z,79.78
2022-12-13T20:36:37.567Z,79.72
2022-12-13T20:39:07.235Z,80.17
2022-12-13T20:41:36.276Z,79.65
2022-12-13T20:44:06.126Z,80.43
2022-12-13T20:46:34.182Z,79.57
2022-12-13T20:49:03.916Z,80.06
2022-12-13T20:51:32.701Z,80.79
2022-12-13T20:54:00.028Z,80.99
2022-12-13T20:56:34.985Z,81.34
2022-12-13T20:59:04.450Z,81.10
2022-12-13T21:01:35.649Z,81.27
2022-12-13T21:04:06.155Z,81.39
2022-12-13T21:06:36.499Z,78.98
2022-12-13T21:09:05.139Z,78.47
2022-12-13T21:11:41.536Z,77.77
2022-12-13T21:14:16.959Z,76.87
2022-12-13T21:17:00.742Z,77.20
2022-12-13T21:19:37.582Z,76.98
2022-12-13T21:22:07.242Z,76.96
2022-12-13T21:24:34.743Z,77.36
2022-12-13T21:27:02.130Z,75.81
2022-12-13T21:29:29.508Z,76.22
2022-12-13T21:31:57.085Z,76.00
2022-12-13T21:34:24.837Z,76.08
2022-12-13T21:36:52.759Z,75.39
2022-12-13T21:39:22.681Z,74.80
2022-12-13T21:41:50.847Z,73.42
2022-12-13T21:44:18.577Z,72.92
2022-12-13T21:49:34.245Z,73.18
2022-12-13T21:52:01.693Z,73.05
2022-12-13T21:54:29.069Z,73.89
2022-12-13T21:57:14.989Z,73.96
2022-12-13T21:59:42.307Z,74.35
2022-12-13T22:02:18.691Z,73.46
2022-12-13T22:04:57.712Z,73.95
2022-12-13T22:07:33.050Z,73.56
2022-12-13T22:10:01.629Z,74.16
2022-12-13T22:12:37.194Z,74.28
2022-12-13T22:15:08.408Z,74.62
2022-12-13T22:17:37.058Z,75.53
2022-12-13T22:20:13.747Z,75.88
2022-12-13T22:22:44.041Z,75.56
2022-12-13T22:25:12.202Z,76.06
2022-12-13T22:27:39.596Z,75.34
2022-12-13T22:30:07.762Z,75.89
2022-12-13T22:32:35.134Z,75.28
2022-12-13T22:35:02.757Z,75.39
2022-12-13T22:37:30.600Z,74.85
2022-12-13T22:39:58.009Z,73.91
2022-12-13T22:42:25.512Z,74.18
2022-12-13T22:44:52.891Z,75.13
2022-12-13T22:47:20.256Z,74.63
2022-12-13T22:49:49.063Z,75.82
2022-12-13T22:52:17.395Z,75.78
2022-12-13T22:54:44.848Z,75.17
2022-12-13T22:57:12.256Z,77.46
2022-12-13T22:59:39.914Z,76.81
2022-12-13T23:02:07.781Z,77.56
2022-12-13T23:04:35.346Z,76.06
2022-12-13T23:07:02.855Z,76.65
2022-12-13T23:09:31.140Z,76.15
2022-12-13T23:12:17.116Z,74.89
2022-12-13T23:14:44.606Z,75.43
2022-12-13T23:17:12.035Z,74.95
2022-12-13T23:19:50.097Z,75.14
2022-12-13T23:22:23.565Z,75.52
2022-12-13T23:24:52.177Z,75.46
2022-12-13T23:27:21.589Z,76.04
2022-12-13T23:29:49.942Z,76.09
2022-12-13T23:32:17.566Z,76.32
2022-12-13T23:34:44.933Z,75.54
2022-12-13T23:37:12.312Z,75.73
2022-12-13T23:39:39.633Z,76.14
2022-12-13T23:42:07.276Z,76.02
2022-12-13T23:44:34.674Z,76.70
2022-12-13T23:47:02.058Z,75.45
2022-12-13T23:49:29.503Z,75.40
2022-12-13T23:51:56.866Z,75.02
2022-12-13T23:54:24.372Z,75.38
2022-12-13T23:56:51.701Z,75.47
2022-12-13T23:59:19.089Z,75.06
